Time;durP1;ratioP1;P1;durP2;ratioP2;P2;SDS_P1;SDS_P2;PMS_P1;PMS_P2;Temp;Humidity;BMP_temperature;BMP_pressure;BME280_temperature;BME280_humidity;BME280_pressure;Samples;Min_cycle;Max_cycle;Signal;HPM_P1;HPM_P2
2022/04/21 00:00:16;;;;;;;1.47;1.10;;;12.00;82.10;;;;;;5024813;28;20475;-75
2022/04/21 00:02:43;;;;;;;1.47;1.10;;;11.90;82.30;;;;;;5028228;28;20467;-75
2022/04/21 00:05:12;;;;;;;1.47;1.00;;;11.90;82.90;;;;;;5022753;28;20517;-75
2022/04/21 00:07:40;;;;;;;1.43;1.10;;;11.80;82.70;;;;;;5029271;28;20494;-76
2022/04/21 00:10:09;;;;;;;1.97;1.77;;;11.80;83.40;;;;;;5029663;28;20847;-75
2022/04/21 00:12:36;;;;;;;1.43;1.00;;;11.70;82.50;;;;;;5032669;28;20459;-75
2022/04/21 00:15:06;;;;;;;1.40;1.10;;;11.60;83.70;;;;;;5031729;28;20483;-75
2022/04/21 00:17:33;;;;;;;1.47;1.10;;;11.60;83.70;;;;;;5031982;28;20459;-75
2022/04/21 00:20:00;;;;;;;1.50;1.20;;;11.50;84.30;;;;;;5032159;28;20470;-75
2022/04/21 00:25:12;;;;;;;1.40;1.00;;;11.50;83.40;;;;;;5027273;28;20486;-75
2022/04/21 00:27:40;;;;;;;1.43;1.10;;;11.40;83.80;;;;;;5031788;28;20653;-75
2022/04/21 00:30:10;;;;;;;1.43;1.10;;;11.40;84.20;;;;;;5032068;28;20509;-75
2022/04/21 00:32:38;;;;;;;1.50;1.10;;;11.40;84.90;;;;;;5030999;28;20951;-74
2022/04/21 00:35:09;;;;;;;1.43;1.10;;;11.30;85.10;;;;;;5032312;28;21009;-74
2022/04/21 00:37:45;;;;;;;1.50;1.10;;;11.20;85.60;;;;;;5030596;28;20470;-74
2022/04/21 00:40:13;;;;;;;1.43;1.10;;;11.20;84.60;;;;;;5031446;28;20570;-74
2022/04/21 00:42:41;;;;;;;1.50;1.17;;;11.10;85.20;;;;;;5030072;28;20463;-74
2022/04/21 00:45:10;;;;;;;1.47;1.10;;;11.00;85.50;;;;;;5030537;28;20505;-74
2022/04/21 00:47:40;;;;;;;1.47;1.07;;;11.00;85.70;;;;;;5030625;28;20513;-74
2022/04/21 00:50:11;;;;;;;1.50;1.10;;;11.00;85.50;;;;;;5030956;28;20955;-74
2022/04/21 00:52:40;;;;;;;1.50;1.20;;;11.00;85.80;;;;;;5029456;28;20521;-74
2022/04/21 00:55:08;;;;;;;1.47;1.10;;;10.90;86.40;;;;;;5030502;28;20494;-74
2022/04/21 00:57:35;;;;;;;1.50;1.20;;;10.90;85.50;;;;;;5030764;28;20459;-74
2022/04/21 01:00:03;;;;;;;1.40;1.10;;;10.90;85.70;;;;;;5031809;28;20474;-74
2022/04/21 01:02:49;;;;;;;1.50;1.10;;;10.90;85.80;;;;;;5030764;28;20948;-75
2022/04/21 01:05:20;;;;;;;1.50;1.10;;;10.90;86.00;;;;;;5029915;28;20581;-74
2022/04/21 01:07:47;;;;;;;1.43;1.10;;;10.90;85.70;;;;;;5030969;28;20823;-74
2022/04/21 01:10:15;;;;;;;1.50;1.20;;;10.90;85.40;;;;;;5030457;28;20530;-74
2022/04/21 01:12:44;;;;;;;1.43;1.10;;;10.90;85.90;;;;;;5030251;28;20549;-74
2022/04/21 01:15:11;;;;;;;1.50;1.10;;;10.90;85.50;;;;;;5030994;28;20479;-74
2022/04/21 01:17:40;;;;;;;1.43;1.10;;;10.80;86.00;;;;;;5029456;28;20487;-74
2022/04/21 01:20:09;;;;;;;1.47;1.07;;;10.80;86.00;;;;;;5029814;28;20544;-75
2022/04/21 01:22:37;;;;;;;1.50;1.20;;;10.80;85.70;;;;;;5028658;28;20493;-74
2022/04/21 01:25:05;;;;;;;1.47;1.10;;;10.70;86.30;;;;;;5030447;28;20694;-74
2022/04/21 01:27:34;;;;;;;1.50;1.10;;;10.70;85.90;;;;;;5030589;28;20947;-74
2022/04/21 01:30:03;;;;;;;1.43;1.10;;;10.70;85.60;;;;;;5030341;28;20470;-74
2022/04/21 01:32:31;;;;;;;1.43;1.10;;;10.70;85.70;;;;;;5029014;28;20464;-74
2022/04/21 01:34:58;;;;;;;1.40;1.10;;;10.60;86.20;;;;;;5030047;28;21062;-75
2022/04/21 01:42:56;;;;;;;1.50;1.20;;;10.50;87.00;;;;;;5029778;28;20972;-74
2022/04/21 01:45:23;;;;;;;1.50;1.10;;;10.50;87.60;;;;;;5029853;28;20485;-74
2022/04/21 01:47:49;;;;;;;1.50;1.20;;;10.50;86.80;;;;;;5031203;28;20505;-74
2022/04/21 01:50:16;;;;;;;1.50;1.10;;;10.40;87.20;;;;;;5023566;28;20486;-74
2022/04/21 01:52:43;;;;;;;1.47;1.10;;;10.40;87.00;;;;;;5030225;28;20959;-74
2022/04/21 01:55:12;;;;;;;1.40;1.10;;;10.40;87.70;;;;;;5030680;28;20482;-74
2022/04/21 01:57:39;;;;;;;1.50;1.10;;;10.30;86.60;;;;;;5028545;28;20521;-74
2022/04/21 02:00:07;;;;;;;1.47;1.10;;;10.30;87.80;;;;;;5019374;28;20780;-75
2022/04/21 02:02:35;;;;;;;1.43;1.00;;;10.30;87.90;;;;;;5027623;28;20491;-74
2022/04/21 02:05:02;;;;;;;1.40;1.10;;;10.30;87.30;;;;;;5025169;28;20494;-74
2022/04/21 02:07:29;;;;;;;1.40;1.10;;;10.20;87.60;;;;;;5029015;28;20462;-75
2022/04/21 02:09:56;;;;;;;1.50;1.17;;;10.20;87.60;;;;;;5029100;28;20964;-74
2022/04/21 02:12:28;;;;;;;1.50;1.20;;;10.10;87.60;;;;;;5027332;28;20951;-74
2022/04/21 02:14:55;;;;;;;1.50;1.20;;;10.10;87.40;;;;;;5029057;28;20509;-74
2022/04/21 02:17:24;;;;;;;1.50;1.20;;;10.00;87.70;;;;;;5023046;28;20482;-74
2022/04/21 02:19:53;;;;;;;1.43;1.10;;;10.00;87.80;;;;;;5029190;28;20470;-74
2022/04/21 02:22:20;;;;;;;1.50;1.17;;;10.00;88.50;;;;;;5025301;28;20491;-74
2022/04/21 02:24:47;;;;;;;1.43;1.10;;;10.00;88.20;;;;;;5026039;28;20483;-74
2022/04/21 02:27:14;;;;;;;1.50;1.10;;;10.00;88.60;;;;;;5023135;28;20482;-74
2022/04/21 02:29:43;;;;;;;1.50;1.10;;;10.00;88.90;;;;;;5030113;28;20464;-74
2022/04/21 02:32:10;;;;;;;1.40;1.10;;;9.90;88.50;;;;;;5028119;28;20922;-74
2022/04/21 02:34:36;;;;;;;1.50;1.10;;;9.90;89.30;;;;;;5030537;28;20479;-74
2022/04/21 02:37:03;;;;;;;1.47;1.10;;;9.90;89.50;;;;;;5028008;28;20987;-74
2022/04/21 02:39:31;;;;;;;1.40;1.20;;;9.90;89.30;;;;;;5029778;28;20566;-74
2022/04/21 02:41:57;;;;;;;1.40;1.20;;;9.80;89.70;;;;;;5029631;28;21067;-74
2022/04/21 02:44:24;;;;;;;1.47;1.20;;;9.80;89.60;;;;;;5030354;28;20483;-73
2022/04/21 02:46:53;;;;;;;1.47;1.17;;;9.80;90.10;;;;;;5027227;28;20491;-74
2022/04/21 02:49:20;;;;;;;1.43;1.20;;;9.70;90.00;;;;;;5030810;28;20474;-74
2022/04/21 02:51:48;;;;;;;1.43;1.10;;;9.70;90.60;;;;;;5029418;28;20460;-73
2022/04/21 02:59:43;;;;;;;1.47;1.20;;;9.60;90.60;;;;;;5029926;28;20608;-74
2022/04/21 03:02:11;;;;;;;1.47;1.10;;;9.50;90.90;;;;;;5029548;28;20482;-74
2022/04/21 03:04:38;;;;;;;1.47;1.20;;;9.50;90.20;;;;;;5025386;28;20486;-74
2022/04/21 03:07:05;;;;;;;1.40;1.10;;;9.50;91.30;;;;;;5029810;28;20972;-73
2022/04/21 03:09:32;;;;;;;1.50;1.20;;;9.50;91.30;;;;;;5029672;28;20544;-73
2022/04/21 03:12:03;;;;;;;1.50;1.20;;;9.50;91.20;;;;;;5030007;28;20495;-73
2022/04/21 03:14:30;;;;;;;1.50;1.20;;;9.40;91.20;;;;;;5030370;28;20491;-74
2022/04/21 03:16:56;;;;;;;1.50;1.20;;;9.40;91.30;;;;;;5030209;28;20951;-73
2022/04/21 03:19:25;;;;;;;1.50;1.10;;;9.40;90.90;;;;;;5030252;28;20566;-73
2022/04/21 03:24:37;;;;;;;1.43;1.20;;;9.30;91.40;;;;;;5029165;28;20470;-74
2022/04/21 03:27:05;;;;;;;1.47;1.20;;;9.30;91.60;;;;;;5028778;28;20467;-74
2022/04/21 03:29:31;;;;;;;1.47;1.10;;;9.30;90.90;;;;;;5029770;28;20451;-74
2022/04/21 03:31:58;;;;;;;1.47;1.20;;;9.30;91.30;;;;;;5028212;28;20464;-73
2022/04/21 03:34:26;;;;;;;1.47;1.10;;;9.30;90.80;;;;;;5029618;28;20522;-75
2022/04/21 03:36:53;;;;;;;1.47;1.20;;;9.30;91.00;;;;;;5029523;28;20471;-75
2022/04/21 03:39:21;;;;;;;1.47;1.17;;;9.30;90.60;;;;;;5029431;28;20538;-75
2022/04/21 03:41:53;;;;;;;1.50;1.20;;;9.30;90.80;;;;;;5028731;28;20455;-75
2022/04/21 03:44:20;;;;;;;1.47;1.20;;;9.30;90.90;;;;;;5029408;28;20486;-75
2022/04/21 03:46:47;;;;;;;1.50;1.20;;;9.20;91.60;;;;;;5032150;28;20497;-76
2022/04/21 03:49:15;;;;;;;1.47;1.10;;;9.20;91.30;;;;;;5034014;28;20463;-76
2022/04/21 03:51:43;;;;;;;1.47;1.20;;;9.20;92.00;;;;;;5032196;28;20489;-76
2022/04/21 03:54:10;;;;;;;1.50;1.30;;;9.20;91.70;;;;;;5032936;28;20501;-73
2022/04/21 03:56:37;;;;;;;1.50;1.20;;;9.20;91.70;;;;;;5029995;28;20463;-75
2022/04/21 03:59:05;;;;;;;1.47;1.20;;;9.20;91.50;;;;;;5035070;28;20538;-77
2022/04/21 04:01:31;;;;;;;1.43;1.20;;;9.20;91.40;;;;;;5034160;28;20909;-75
2022/04/21 04:03:58;;;;;;;1.47;1.20;;;9.10;91.90;;;;;;5032984;28;20875;-76
2022/04/21 04:11:55;;;;;;;1.50;1.30;;;9.00;92.90;;;;;;5050101;28;20449;-76
2022/04/21 04:14:22;;;;;;;1.50;1.30;;;9.00;92.00;;;;;;5054097;28;20454;-76
2022/04/21 04:16:49;;;;;;;1.50;1.20;;;9.00;92.40;;;;;;5054420;28;20523;-76
2022/04/21 04:19:16;;;;;;;1.40;1.10;;;8.90;92.30;;;;;;5055150;28;20494;-76
2022/04/21 04:21:42;;;;;;;1.50;1.30;;;8.90;93.40;;;;;;5053179;28;20470;-76
2022/04/21 04:24:11;;;;;;;2.50;2.30;;;8.90;93.30;;;;;;5054280;28;20458;-76
2022/04/21 04:26:37;;;;;;;1.50;1.17;;;8.80;93.90;;;;;;5048542;28;20486;-76
2022/04/21 04:29:05;;;;;;;1.50;1.30;;;8.80;93.50;;;;;;5051411;28;20458;-76
2022/04/21 04:31:33;;;;;;;1.50;1.17;;;8.80;94.50;;;;;;5050084;28;20466;-75
2022/04/21 04:34:00;;;;;;;1.47;1.13;;;8.80;94.60;;;;;;5049577;28;20469;-75
2022/04/21 04:36:27;;;;;;;1.43;1.20;;;8.80;94.40;;;;;;5049062;28;20482;-76
2022/04/21 04:38:53;;;;;;;1.50;1.20;;;8.80;94.10;;;;;;5048877;28;20691;-76
2022/04/21 04:44:06;;;;;;;1.40;1.20;;;8.70;94.40;;;;;;5047223;28;20446;-75
2022/04/21 04:46:35;;;;;;;1.50;1.30;;;8.70;94.50;;;;;;5049325;28;20486;-76
2022/04/21 04:49:01;;;;;;;1.40;1.17;;;8.70;94.60;;;;;;5045201;28;20482;-76
2022/04/21 04:51:28;;;;;;;1.40;1.20;;;8.70;94.90;;;;;;5046423;28;20470;-75
2022/04/21 04:53:55;;;;;;;1.50;1.20;;;8.70;94.90;;;;;;5051927;28;20469;-77
2022/04/21 04:56:24;;;;;;;1.47;1.23;;;8.70;94.60;;;;;;5049420;28;20490;-75
2022/04/21 04:58:51;;;;;;;1.47;1.20;;;8.70;94.60;;;;;;5052714;28;20493;-75
2022/04/21 05:01:26;;;;;;;1.50;1.27;;;8.80;94.40;;;;;;5046164;28;20565;-76
2022/04/21 05:03:54;;;;;;;1.50;1.20;;;8.80;94.30;;;;;;5044963;28;20464;-76
2022/04/21 05:06:21;;;;;;;1.47;1.20;;;8.80;94.40;;;;;;5042336;28;20486;-77
2022/04/21 05:08:48;;;;;;;1.47;1.20;;;8.80;95.00;;;;;;5050224;28;20947;-75
2022/04/21 05:11:15;;;;;;;1.43;1.20;;;8.80;94.60;;;;;;5052180;28;20466;-75
2022/04/21 05:13:43;;;;;;;1.47;1.20;;;8.80;94.80;;;;;;5052532;28;20470;-76
2022/04/21 05:16:10;;;;;;;1.43;1.20;;;8.90;94.80;;;;;;5051135;28;20490;-76
2022/04/21 05:18:37;;;;;;;1.50;1.30;;;8.90;95.00;;;;;;5050189;28;20780;-76
2022/04/21 05:21:05;;;;;;;1.47;1.20;;;9.00;94.30;;;;;;5051997;28;20489;-76
2022/04/21 05:23:34;;;;;;;1.47;1.10;;;9.00;94.20;;;;;;5051412;28;20877;-76
2022/04/21 05:26:02;;;;;;;1.40;1.10;;;9.10;94.10;;;;;;5051498;28;21282;-76
2022/04/21 05:28:30;;;;;;;1.50;1.20;;;9.20;94.30;;;;;;5050531;28;20989;-75
2022/04/21 05:30:58;;;;;;;1.43;1.10;;;9.20;95.00;;;;;;5051369;28;20851;-76
2022/04/21 05:33:27;;;;;;;1.43;1.13;;;9.40;94.70;;;;;;5052813;28;20560;-76
2022/04/21 05:35:55;;;;;;;1.47;1.17;;;9.60;94.90;;;;;;5053407;28;20830;-76
2022/04/21 05:38:23;;;;;;;1.50;1.20;;;9.70;93.40;;;;;;5057821;28;20493;-76
2022/04/21 05:40:52;;;;;;;1.50;1.10;;;10.00;94.20;;;;;;5054150;28;20984;-76
2022/04/21 05:43:20;;;;;;;1.50;1.30;;;10.20;93.30;;;;;;5056405;28;20490;-76
2022/04/21 05:45:48;;;;;;;1.80;1.70;;;10.50;92.80;;;;;;5057637;28;20493;-76
2022/04/21 05:48:17;;;;;;;1.43;1.10;;;10.70;91.50;;;;;;5055285;28;20458;-77
2022/04/21 05:50:47;;;;;;;1.47;1.13;;;10.80;90.70;;;;;;5053208;28;21004;-76
2022/04/21 05:53:21;;;;;;;1.47;1.10;;;11.00;91.00;;;;;;5052937;28;20553;-78
2022/04/21 05:55:48;;;;;;;1.50;1.20;;;11.30;90.40;;;;;;5051451;28;20521;-76
2022/04/21 05:58:15;;;;;;;1.47;1.10;;;11.50;89.50;;;;;;5052352;28;20557;-76
2022/04/21 06:00:42;;;;;;;1.40;1.00;;;11.80;89.20;;;;;;5051875;28;20600;-77
2022/04/21 06:03:11;;;;;;;1.47;1.00;;;12.00;88.10;;;;;;5051394;28;20462;-77
2022/04/21 06:05:39;;;;;;;1.43;1.00;;;12.20;86.90;;;;;;5052421;28;20915;-77
2022/04/21 06:08:07;;;;;;;1.50;1.00;;;12.40;87.10;;;;;;5050706;28;20459;-77
2022/04/21 06:10:34;;;;;;;1.47;1.00;;;12.60;85.80;;;;;;5053064;28;20462;-77
2022/04/21 06:13:02;;;;;;;1.47;1.10;;;12.70;84.10;;;;;;5052114;28;20897;-77
2022/04/21 06:15:31;;;;;;;1.47;1.00;;;12.80;84.10;;;;;;5051818;28;20482;-77
2022/04/21 06:17:58;;;;;;;1.50;1.00;;;12.80;83.90;;;;;;5049937;28;20919;-77
2022/04/21 06:20:26;;;;;;;1.47;1.00;;;13.00;83.90;;;;;;5049003;28;20470;-77
2022/04/21 06:22:55;;;;;;;1.50;1.00;;;13.10;83.20;;;;;;5048508;28;20970;-77
2022/04/21 06:25:22;;;;;;;1.43;1.00;;;13.40;82.90;;;;;;5048951;28;20470;-76
2022/04/21 06:27:49;;;;;;;1.50;1.00;;;13.60;82.00;;;;;;5052805;28;20458;-77
2022/04/21 06:30:17;;;;;;;1.50;1.03;;;13.80;80.90;;;;;;5050118;28;20473;-77
2022/04/21 06:32:44;;;;;;;1.47;1.00;;;13.90;80.80;;;;;;5050041;28;20459;-77
2022/04/21 06:35:11;;;;;;;1.50;1.10;;;14.10;80.60;;;;;;5051068;28;20837;-77
2022/04/21 06:37:38;;;;;;;1.43;1.00;;;14.20;79.30;;;;;;5051272;28;20474;-77
2022/04/21 06:40:07;;;;;;;1.50;1.00;;;14.40;79.00;;;;;;5050588;28;21884;-77
2022/04/21 06:42:35;;;;;;;1.50;1.00;;;14.50;77.80;;;;;;5050810;28;20450;-77
2022/04/21 06:48:04;;;;;;;1.47;1.00;;;14.60;77.30;;;;;;5047045;28;20445;-77
2022/04/21 06:50:32;;;;;;;1.47;0.97;;;14.70;76.90;;;;;;5049026;28;20873;-77
2022/04/21 06:52:59;;;;;;;1.50;1.00;;;14.90;77.00;;;;;;5049410;28;20462;-77
2022/04/21 06:55:27;;;;;;;1.50;1.00;;;15.20;76.40;;;;;;5050419;28;20481;-77
2022/04/21 06:57:54;;;;;;;1.40;1.00;;;15.40;76.70;;;;;;5048725;28;20541;-77
2022/04/21 07:00:22;;;;;;;1.40;0.90;;;15.70;75.70;;;;;;5048505;28;20490;-77
2022/04/21 07:02:51;;;;;;;1.50;1.00;;;15.90;75.20;;;;;;5048577;28;21009;-77
2022/04/21 07:05:18;;;;;;;1.43;1.00;;;16.20;75.40;;;;;;5050737;28;20466;-77
2022/04/21 07:07:45;;;;;;;1.47;0.90;;;16.30;73.40;;;;;;5050359;28;20485;-77
2022/04/21 07:10:12;;;;;;;1.43;0.90;;;16.50;73.70;;;;;;5049672;28;20469;-76
2022/04/21 07:12:40;;;;;;;1.47;0.93;;;16.50;72.60;;;;;;5049200;28;20869;-77
2022/04/21 07:15:09;;;;;;;1.47;1.00;;;16.30;73.00;;;;;;5049706;28;20462;-77
2022/04/21 07:17:37;;;;;;;1.43;0.90;;;16.20;73.60;;;;;;5050446;28;20863;-77
2022/04/21 07:20:05;;;;;;;1.47;1.00;;;16.30;73.50;;;;;;5051938;28;21027;-78
2022/04/21 07:22:33;;;;;;;1.43;1.00;;;16.60;73.10;;;;;;5053738;28;20470;-77
2022/04/21 07:25:01;;;;;;;1.40;0.90;;;16.80;73.20;;;;;;5055292;28;20961;-77
2022/04/21 07:27:28;;;;;;;1.50;0.97;;;17.10;72.50;;;;;;5052885;28;20478;-77
2022/04/21 07:29:57;;;;;;;1.47;0.90;;;17.30;72.70;;;;;;5053334;28;20965;-77
2022/04/21 07:32:24;;;;;;;1.50;1.00;;;17.60;72.70;;;;;;5053942;28;20471;-78
2022/04/21 07:34:50;;;;;;;1.43;0.90;;;17.80;70.90;;;;;;5051289;28;20844;-78
2022/04/21 07:37:17;;;;;;;1.47;1.00;;;18.00;71.50;;;;;;5053651;28;20978;-78
2022/04/21 07:39:44;;;;;;;1.47;1.00;;;18.00;71.40;;;;;;5054532;28;21179;-78
2022/04/21 07:42:12;;;;;;;1.43;0.90;;;18.10;70.80;;;;;;5051063;28;20498;-78
2022/04/21 07:44:39;;;;;;;1.50;1.00;;;18.30;70.90;;;;;;5049351;28;20564;-78
2022/04/21 07:47:08;;;;;;;1.47;0.90;;;18.40;69.80;;;;;;5052398;28;20910;-78
2022/04/21 07:49:47;;;;;;;1.50;1.17;;;18.50;69.30;;;;;;5052842;28;20464;-78
2022/04/21 07:55:07;;;;;;;1.43;0.90;;;18.70;69.00;;;;;;5052056;28;20461;-77
2022/04/21 07:57:34;;;;;;;1.47;0.90;;;18.80;69.10;;;;;;5052897;28;20488;-78
2022/04/21 08:00:01;;;;;;;1.43;0.90;;;19.00;68.40;;;;;;5049584;28;20497;-77
2022/04/21 08:02:29;;;;;;;1.50;0.90;;;19.10;68.40;;;;;;5052410;28;20942;-79
2022/04/21 08:04:56;;;;;;;1.40;0.90;;;19.20;67.60;;;;;;5051884;28;21041;-78
2022/04/21 08:07:23;;;;;;;1.40;0.90;;;19.20;68.10;;;;;;5050634;28;20878;-78
2022/04/21 08:09:50;;;;;;;1.40;0.90;;;19.20;68.90;;;;;;5052205;28;20519;-78
2022/04/21 08:12:17;;;;;;;1.50;0.90;;;19.30;68.40;;;;;;5045960;28;20810;-78
2022/04/21 08:14:44;;;;;;;1.47;0.90;;;19.40;67.40;;;;;;5045968;28;20465;-78
2022/04/21 08:17:11;;;;;;;1.50;0.90;;;19.40;67.30;;;;;;5051459;28;21270;-78
2022/04/21 08:19:39;;;;;;;1.47;0.90;;;19.40;66.30;;;;;;5053638;28;20486;-78
2022/04/21 08:22:06;;;;;;;2.17;1.97;;;19.20;67.20;;;;;;5050508;28;20465;-78
2022/04/21 08:32:45;;;;;;;1.47;0.90;;;19.10;67.40;;;;;;5050809;28;20802;-77
2022/04/21 08:35:14;;;;;;;1.40;0.90;;;19.10;66.70;;;;;;5050463;28;21012;-78
2022/04/21 08:37:42;;;;;;;1.40;0.90;;;19.20;66.50;;;;;;5052056;28;20458;-77
2022/04/21 08:40:10;;;;;;;1.50;0.90;;;19.30;66.00;;;;;;5048374;28;20482;-78
2022/04/21 08:42:39;;;;;;;1.47;0.90;;;19.40;65.90;;;;;;5051823;28;20502;-78
2022/04/21 08:45:07;;;;;;;1.40;0.90;;;19.50;65.30;;;;;;5051332;28;20509;-78
2022/04/21 08:47:35;;;;;;;1.43;0.90;;;19.50;65.90;;;;;;5050264;28;20474;-78
2022/04/21 08:50:06;;;;;;;1.40;0.90;;;19.30;63.70;;;;;;5051210;28;20458;-77
2022/04/21 08:52:35;;;;;;;1.47;0.90;;;19.20;63.40;;;;;;5049510;28;20569;-78
2022/04/21 08:55:03;;;;;;;1.43;1.00;;;19.00;62.60;;;;;;5045204;28;20535;-78
2022/04/21 08:57:31;;;;;;;1.40;0.90;;;18.90;62.20;;;;;;5049439;28;20512;-77
2022/04/21 08:59:58;;;;;;;1.47;0.90;;;18.90;62.10;;;;;;5050526;28;20497;-78
2022/04/21 09:02:39;;;;;;;1.40;0.90;;;18.90;61.60;;;;;;5050107;28;20461;-77
2022/04/21 09:05:07;;;;;;;1.63;1.47;;;18.90;60.90;;;;;;5050822;28;20549;-78
2022/04/21 09:07:43;;;;;;;1.43;0.90;;;19.00;61.10;;;;;;5050231;28;20470;-78
2022/04/21 09:10:12;;;;;;;1.40;0.90;;;19.00;58.60;;;;;;5049324;28;20955;-77
2022/04/21 09:12:42;;;;;;;1.40;0.90;;;18.80;58.90;;;;;;5050927;28;20666;-77
2022/04/21 09:15:12;;;;;;;1.40;0.90;;;18.80;59.50;;;;;;5051055;28;20458;-77
2022/04/21 09:17:41;;;;;;;1.43;0.90;;;18.80;58.00;;;;;;5051354;28;20458;-77
2022/04/21 09:20:09;;;;;;;3.23;3.00;;;18.90;59.20;;;;;;5051127;28;20518;-78
2022/04/21 09:22:41;;;;;;;1.40;0.90;;;19.20;59.50;;;;;;5049888;28;20467;-77
2022/04/21 09:25:09;;;;;;;1.47;0.90;;;19.50;60.00;;;;;;5049722;28;20942;-78
2022/04/21 09:27:41;;;;;;;1.40;0.90;;;19.70;57.20;;;;;;5049980;28;20494;-79
2022/04/21 09:30:12;;;;;;;1.43;0.90;;;19.90;57.00;;;;;;5051203;28;20458;-78
2022/04/21 09:32:41;;;;;;;1.50;0.90;;;20.00;57.80;;;;;;5050203;28;20472;-78
2022/04/21 09:35:10;;;;;;;1.43;0.90;;;20.40;56.70;;;;;;5050555;28;20494;-78
2022/04/21 09:37:49;;;;;;;1.47;0.90;;;20.50;56.20;;;;;;5049939;28;20473;-77
2022/04/21 09:40:18;;;;;;;1.47;0.90;;;20.40;55.30;;;;;;5043910;28;20486;-78
2022/04/21 09:42:52;;;;;;;1.50;1.20;;;20.50;56.80;;;;;;5048281;28;20521;-77
2022/04/21 09:48:11;;;;;;;1.47;0.87;;;20.70;55.80;;;;;;5050576;28;20465;-78
2022/04/21 09:50:42;;;;;;;1.50;1.00;;;20.90;55.10;;;;;;5049833;28;20454;-78
2022/04/21 09:53:10;;;;;;;1.50;0.90;;;21.00;55.70;;;;;;5049179;28;20454;-78
2022/04/21 09:55:37;;;;;;;1.50;0.90;;;21.20;56.30;;;;;;5049781;28;21027;-78
2022/04/21 09:58:06;;;;;;;1.43;0.90;;;21.40;56.40;;;;;;5054308;28;20494;-77
2022/04/21 10:00:34;;;;;;;1.47;0.90;;;21.40;54.80;;;;;;5049362;28;20494;-79
2022/04/21 10:03:02;;;;;;;1.50;0.90;;;21.60;56.00;;;;;;5049949;28;20835;-77
2022/04/21 10:05:33;;;;;;;1.40;0.90;;;21.60;54.60;;;;;;5046706;28;20777;-79
2022/04/21 10:08:01;;;;;;;1.43;0.90;;;21.80;55.30;;;;;;5047816;22;20494;-79
2022/04/21 10:10:31;;;;;;;1.43;0.90;;;22.00;55.10;;;;;;5021918;28;20484;-78
2022/04/21 10:12:59;;;;;;;1.47;0.90;;;21.90;56.00;;;;;;5019533;28;20471;-78
2022/04/21 10:15:27;;;;;;;1.50;0.90;;;21.80;54.30;;;;;;5025420;28;20463;-79
2022/04/21 10:17:54;;;;;;;1.47;0.90;;;21.70;55.00;;;;;;5021997;28;20486;-79
2022/04/21 10:20:23;;;;;;;1.47;0.90;;;21.30;55.20;;;;;;5011192;28;20783;-79
2022/04/21 10:22:50;;;;;;;1.47;0.90;;;20.90;56.80;;;;;;5013569;28;20460;-79
2022/04/21 10:25:18;;;;;;;1.47;0.90;;;20.80;57.50;;;;;;5021582;28;20496;-80
2022/04/21 10:27:47;;;;;;;1.40;0.80;;;20.80;57.70;;;;;;5018995;28;20913;-80
2022/04/21 10:30:19;;;;;;;1.40;0.90;;;20.60;58.10;;;;;;5021461;28;20478;-79
2022/04/21 10:32:54;;;;;;;1.40;0.90;;;20.70;56.80;;;;;;5022304;28;21028;-79
2022/04/21 10:35:38;;;;;;;1.43;0.90;;;20.80;57.30;;;;;;5025872;28;20942;-80
2022/04/21 10:38:18;;;;;;;1.47;0.90;;;20.80;57.60;;;;;;5013344;28;20464;-78
2022/04/21 10:40:57;;;;;;;1.50;0.90;;;20.70;57.30;;;;;;5028681;28;20879;-79
2022/04/21 10:43:26;;;;;;;1.47;0.90;;;20.50;57.60;;;;;;5019495;28;20547;-80
2022/04/21 10:46:18;;;;;;;1.43;0.87;;;20.50;58.00;;;;;;5030138;28;20557;-79
2022/04/21 10:48:45;;;;;;;1.47;0.90;;;20.50;58.70;;;;;;5016566;28;20472;-79
2022/04/21 10:51:12;;;;;;;1.43;0.90;;;20.50;59.50;;;;;;5017527;28;20470;-81
2022/04/21 10:59:30;;;;;;;1.43;0.90;;;20.20;59.30;;;;;;5019522;28;20761;-80
2022/04/21 11:02:11;;;;;;;1.50;1.00;;;20.00;60.30;;;;;;5021070;28;20466;-79
2022/04/21 11:04:38;;;;;;;1.47;0.90;;;19.80;59.70;;;;;;5018388;28;20495;-78
2022/04/21 11:07:12;;;;;;;1.43;0.87;;;19.70;60.50;;;;;;5016810;28;20491;-78
2022/04/21 11:09:46;;;;;;;1.43;0.90;;;19.60;60.70;;;;;;5010063;28;20560;-79
2022/04/21 11:12:16;;;;;;;1.43;0.90;;;19.40;61.50;;;;;;5017661;28;20478;-78
2022/04/21 11:14:45;;;;;;;1.43;0.90;;;19.20;61.40;;;;;;5015934;28;20546;-78
2022/04/21 11:17:12;;;;;;;1.40;0.90;;;19.30;61.80;;;;;;5018437;28;20486;-80
2022/04/21 11:19:51;;;;;;;1.47;0.90;;;19.10;61.30;;;;;;5009288;28;20514;-78
2022/04/21 11:22:37;;;;;;;1.47;0.93;;;19.00;62.80;;;;;;5022104;28;20470;-79
2022/04/21 11:25:06;;;;;;;1.40;0.90;;;19.10;63.10;;;;;;5017891;28;20460;-79
2022/04/21 11:27:37;;;;;;;1.43;0.90;;;19.10;62.70;;;;;;5014090;28;21005;-79
2022/04/21 11:30:08;;;;;;;1.43;0.90;;;18.90;61.50;;;;;;5011361;28;20551;-79
2022/04/21 11:32:35;;;;;;;1.43;0.90;;;18.80;62.40;;;;;;5013270;28;20473;-78
2022/04/21 11:35:04;;;;;;;1.40;0.90;;;18.80;63.10;;;;;;5018895;28;20456;-77
2022/04/21 11:37:51;;;;;;;1.47;0.90;;;18.90;64.00;;;;;;5009879;28;20476;-78
2022/04/21 11:43:19;;;;;;;1.40;0.90;;;19.30;63.10;;;;;;5025658;28;20451;-78
2022/04/21 11:45:57;;;;;;;1.40;0.90;;;19.30;62.70;;;;;;5019815;28;20974;-79
2022/04/21 11:51:12;;;;;;;1.40;0.90;;;19.30;63.30;;;;;;5013243;28;20464;-80
2022/04/21 11:53:41;;;;;;;1.50;1.20;;;19.30;63.70;;;;;;5011940;28;20494;-77
2022/04/21 11:56:09;;;;;;;1.43;0.90;;;19.40;63.70;;;;;;5022708;28;21384;-78
2022/04/21 11:58:37;;;;;;;1.47;0.90;;;19.30;63.50;;;;;;5012164;28;20467;-79
2022/04/21 12:06:40;;;;;;;1.47;0.90;;;19.20;65.40;;;;;;5015167;28;20490;-78
2022/04/21 12:09:08;;;;;;;1.70;1.60;;;19.30;64.00;;;;;;5020230;28;20463;-78
2022/04/21 12:11:36;;;;;;;1.40;0.90;;;19.30;64.20;;;;;;5015910;28;20484;-77
2022/04/21 12:14:03;;;;;;;1.47;0.90;;;19.40;64.40;;;;;;5012657;28;20495;-78
2022/04/21 12:16:52;;;;;;;1.43;0.90;;;19.50;64.80;;;;;;5016114;28;20479;-78
2022/04/21 12:19:28;;;;;;;1.43;0.90;;;19.60;63.90;;;;;;5010410;28;21068;-77
2022/04/21 12:21:57;;;;;;;1.40;0.90;;;19.80;64.40;;;;;;5014099;28;20828;-78
2022/04/21 12:24:30;;;;;;;1.40;0.90;;;20.10;65.60;;;;;;5015770;28;20460;-79
2022/04/21 12:26:56;;;;;;;1.43;0.90;;;20.60;64.80;;;;;;5018926;28;20478;-77
2022/04/21 12:29:24;;;;;;;1.47;0.90;;;20.90;62.90;;;;;;5029141;28;20816;-78
2022/04/21 12:31:54;;;;;;;1.40;0.90;;;20.90;62.90;;;;;;5027173;28;20485;-79
2022/04/21 12:34:23;;;;;;;1.50;0.90;;;21.00;63.90;;;;;;5016992;28;20590;-78
2022/04/21 12:36:51;;;;;;;1.47;0.90;;;21.20;63.30;;;;;;5017625;28;20493;-79
2022/04/21 12:39:19;;;;;;;1.43;0.90;;;21.40;63.10;;;;;;5022581;28;20460;-79
2022/04/21 12:41:46;;;;;;;1.43;0.90;;;21.20;62.40;;;;;;5016426;28;20514;-78
2022/04/21 12:44:13;;;;;;;1.43;0.90;;;21.00;62.40;;;;;;5012028;28;20468;-78
2022/04/21 12:46:40;;;;;;;1.50;0.93;;;20.80;62.80;;;;;;5024136;28;20486;-77
2022/04/21 12:49:09;;;;;;;1.50;0.90;;;20.90;64.10;;;;;;5011050;28;20563;-79
2022/04/21 12:51:35;;;;;;;1.60;1.43;;;21.00;63.60;;;;;;5018243;28;20543;-80
2022/04/21 12:54:02;;;;;;;2.03;1.87;;;21.10;63.20;;;;;;5018239;28;20463;-78
2022/04/21 12:56:34;;;;;;;1.47;0.90;;;21.40;63.00;;;;;;5016599;28;20981;-79
2022/04/21 12:59:01;;;;;;;1.43;0.87;;;21.70;62.90;;;;;;5013087;28;20942;-78
2022/04/21 13:01:29;;;;;;;1.40;0.90;;;21.60;62.10;;;;;;5010353;28;20581;-78
2022/04/21 13:03:58;;;;;;;1.43;0.90;;;21.30;62.00;;;;;;5017229;28;20490;-78
2022/04/21 13:06:30;;;;;;;1.40;0.90;;;21.10;63.30;;;;;;5010894;28;20851;-78
2022/04/21 13:08:57;;;;;;;1.40;0.90;;;20.90;63.00;;;;;;5016339;28;20468;-78
2022/04/21 13:11:25;;;;;;;1.40;0.90;;;20.60;63.30;;;;;;5008491;28;21026;-78
2022/04/21 13:13:53;;;;;;;1.40;0.90;;;20.70;64.10;;;;;;5018404;28;20463;-78
2022/04/21 13:16:20;;;;;;;1.50;0.90;;;20.60;65.00;;;;;;5021488;28;20483;-78
2022/04/21 13:18:47;;;;;;;1.50;0.90;;;20.50;64.60;;;;;;5010370;28;20468;-78
2022/04/21 13:24:00;;;;;;;1.43;0.90;;;20.10;65.40;;;;;;5017379;28;20447;-80
2022/04/21 13:26:29;;;;;;;1.50;0.90;;;19.80;66.70;;;;;;5020678;28;20535;-79
2022/04/21 13:28:59;;;;;;;1.43;0.90;;;19.70;66.50;;;;;;5027515;28;20576;-78
2022/04/21 13:34:11;;;;;;;1.50;1.00;;;19.50;67.10;;;;;;5016824;28;20951;-79
2022/04/21 13:36:38;;;;;;;1.40;0.90;;;19.50;67.40;;;;;;5015327;28;20479;-78
2022/04/21 13:39:07;;;;;;;1.43;1.00;;;19.70;67.20;;;;;;5026972;28;20459;-78
2022/04/21 13:41:33;;;;;;;1.43;0.90;;;19.70;67.30;;;;;;5007207;28;21001;-79
2022/04/21 13:44:00;;;;;;;4.23;1.30;;;19.90;67.20;;;;;;5016530;28;20475;-80
2022/04/21 13:46:28;;;;;;;1.40;0.90;;;20.00;68.60;;;;;;5021021;28;20582;-79
2022/04/21 13:48:56;;;;;;;1.50;0.90;;;20.40;67.60;;;;;;5016305;28;20500;-78
2022/04/21 13:51:23;;;;;;;1.40;0.93;;;20.60;66.30;;;;;;5014764;28;20456;-78
2022/04/21 13:53:49;;;;;;;1.43;0.90;;;20.60;65.90;;;;;;5016305;28;20581;-79
2022/04/21 13:56:17;;;;;;;1.40;0.90;;;20.60;66.20;;;;;;5023513;28;20487;-79
2022/04/21 13:58:45;;;;;;;1.43;0.90;;;20.70;64.90;;;;;;5028876;28;20459;-78